Pagrindinis puslapis
METAR-TAF:

METAR-TAF

Oro uostai :

Turaif, Saudo Arabija

platuma: 31-41N, ilguma: 038-44E, Aukštis: 813 m

Dabartinis oras

Ataskaita buvo paskelbta 42 minutes, ne 19:00 UTC
Vėjas 10 kt iš Vakarų
Temperatūra 13°C
Drėgmė 47%
Slėgis 1018 hPa
Matomumas 10 km arba daugiau
nėra debesų žemiau 1500 m ir nėra kamuolinių lietaus debesų

METAR: OETR 121900Z 28010KT CAVOK 13/02 Q1018 NOSIG

Laikas: 22:42 (19:42 UTC)

Prognozė

Ataskaita buvo paskelbta 8 valandos ir 42 minutes, ne 11:00 UTC
Prognozė galioja nuo 12 metu 12 UTC su 13 metu 18 UTC
Vėjas 12 kt iš Vakarų
Matomumas: 7000 m
Mažai debesys ne aukštis 4000 ft
Tapsmas
nuo 12 metu 18 UTC su 12 metu 20 UTC
Vėjas 8 kt iš Šiaurės

TAF: OETR 121100Z 1212/1318 28012KT 7000 FEW040 BECMG 1218/1220 35008KT

Orai ataskaitas ir orų prognozės (METAR, TAF).

turimą stotys yra geltonos ir raudonos taškus žemėlapyje.

Perkelti pele per norėdami pamatyti stoties vardą.

Tada spustelėkite, norėdami matyti oro stebėjimo ir prognozės.

Norėdami pakeisti žemėlapį: spustelėkite ant žalios mygtukų su juodo kryžiaus žemyn,; žalią mygtuką su brūkšneliu, jei norite nutolinti; arba žalių rodyklių gretimoms žemėlapius.


METAR-TAF: